Time;durP1;ratioP1;P1;durP2;ratioP2;P2;SDS_P1;SDS_P2;PMS_P1;PMS_P2;Temp;Humidity;BMP_temperature;BMP_pressure;BME280_temperature;BME280_humidity;BME280_pressure;Samples;Min_cycle;Max_cycle;Signal;HPM_P1;HPM_P2
2021/10/24 00:01:03;;;;;;;39.80;23.50;;;;;;;4.35;100.00;102604.75;5043851;28;20055;-70
2021/10/24 00:03:28;;;;;;;39.70;23.85;;;;;;;4.29;100.00;102600.06;5041906;28;20109;-70
2021/10/24 00:05:54;;;;;;;39.78;23.95;;;;;;;4.31;100.00;102600.16;5042737;28;20658;-69
2021/10/24 00:08:20;;;;;;;39.33;24.08;;;;;;;4.31;100.00;102605.38;5042583;28;20405;-68
2021/10/24 00:10:46;;;;;;;42.08;25.10;;;;;;;4.30;100.00;102600.97;5044114;28;20112;-65
2021/10/24 00:13:12;;;;;;;43.05;26.33;;;;;;;4.24;100.00;102598.91;5041796;28;20117;-70
2021/10/24 00:15:37;;;;;;;44.38;26.15;;;;;;;4.21;100.00;102603.03;5044971;28;20430;-70
2021/10/24 00:18:02;;;;;;;42.25;25.02;;;;;;;4.26;100.00;102601.63;5041622;28;20060;-67
2021/10/24 00:20:28;;;;;;;44.63;26.80;;;;;;;4.27;100.00;102595.56;5043619;28;20029;-68
2021/10/24 00:22:53;;;;;;;42.08;25.15;;;;;;;4.30;100.00;102594.03;5042538;28;20029;-65
2021/10/24 00:25:18;;;;;;;43.13;26.27;;;;;;;4.24;100.00;102595.38;5042400;28;20025;-70
2021/10/24 00:27:44;;;;;;;42.05;25.92;;;;;;;4.22;100.00;102597.91;5044055;28;20514;-69
2021/10/24 00:30:09;;;;;;;40.78;25.38;;;;;;;4.19;100.00;102592.50;5041123;28;20092;-70
2021/10/24 00:32:34;;;;;;;41.60;26.45;;;;;;;4.15;100.00;102591.41;5044622;28;20025;-70
2021/10/24 00:35:00;;;;;;;43.33;26.17;;;;;;;4.12;100.00;102593.88;5041649;28;20091;-71
2021/10/24 00:37:25;;;;;;;43.55;27.42;;;;;;;4.16;100.00;102589.69;5043202;28;20053;-68
2021/10/24 00:39:51;;;;;;;47.50;29.70;;;;;;;4.14;100.00;102594.84;5043975;28;20032;-70
2021/10/24 00:42:16;;;;;;;45.55;29.35;;;;;;;4.17;100.00;102597.63;5040134;28;20031;-71
2021/10/24 00:44:42;;;;;;;42.78;27.52;;;;;;;4.14;100.00;102594.84;5042599;28;20120;-69
2021/10/24 00:47:07;;;;;;;45.13;27.83;;;;;;;4.10;100.00;102589.34;5043307;28;20166;-62
2021/10/24 00:49:34;;;;;;;43.88;27.70;;;;;;;4.01;100.00;102594.94;5041442;28;20067;-62
2021/10/24 00:52:00;;;;;;;44.25;27.25;;;;;;;4.01;100.00;102595.81;5044373;28;20037;-62
2021/10/24 00:54:27;;;;;;;44.20;27.92;;;;;;;4.05;100.00;102590.78;5041160;28;20030;-62
2021/10/24 00:56:54;;;;;;;43.67;28.20;;;;;;;3.93;100.00;102586.66;5044357;28;20357;-63
2021/10/24 00:59:21;;;;;;;47.60;28.38;;;;;;;3.93;100.00;102585.72;5041405;28;20469;-62
2021/10/24 01:01:47;;;;;;;44.17;28.45;;;;;;;3.83;100.00;102579.94;5043383;28;20380;-62
2021/10/24 01:04:13;;;;;;;43.15;27.70;;;;;;;3.87;100.00;102585.38;5042450;28;20113;-62
2021/10/24 01:06:40;;;;;;;44.60;28.17;;;;;;;3.86;100.00;102589.72;5044572;28;20021;-63
2021/10/24 01:09:10;;;;;;;42.75;26.15;;;;;;;3.69;100.00;102580.84;5046997;28;20573;-62
2021/10/24 01:11:36;;;;;;;40.55;25.27;;;;;;;3.63;100.00;102586.59;5045622;28;20029;-62
2021/10/24 01:14:01;;;;;;;42.53;26.88;;;;;;;3.66;100.00;102580.66;5048054;28;20039;-62
2021/10/24 01:16:26;;;;;;;43.00;27.70;;;;;;;3.62;100.00;102578.66;5044604;28;20025;-62
2021/10/24 01:18:52;;;;;;;44.65;27.70;;;;;;;3.71;100.00;102575.69;5047708;28;20455;-62
2021/10/24 01:21:19;;;;;;;44.08;27.98;;;;;;;3.64;100.00;102571.78;5045453;28;20052;-62
2021/10/24 01:23:45;;;;;;;43.90;28.23;;;;;;;3.61;100.00;102571.63;5046402;28;20029;-62
2021/10/24 01:26:12;;;;;;;45.50;28.23;;;;;;;3.53;100.00;102573.78;5046201;28;20031;-61
2021/10/24 01:28:37;;;;;;;44.22;28.30;;;;;;;3.53;100.00;102571.16;5045945;28;20421;-62
2021/10/24 01:31:04;;;;;;;44.80;29.40;;;;;;;3.51;100.00;102564.94;5046986;28;20059;-61
2021/10/24 01:33:29;;;;;;;45.63;29.05;;;;;;;3.56;100.00;102566.13;5044174;28;20388;-61
2021/10/24 01:35:59;;;;;;;43.97;28.95;;;;;;;3.51;100.00;102564.03;5047762;28;20086;-71
2021/10/24 01:38:26;;;;;;;43.15;27.73;;;;;;;3.53;100.00;102559.81;5040052;28;20041;-71
2021/10/24 01:40:54;;;;;;;45.35;28.48;;;;;;;3.47;100.00;102563.84;5046084;28;20021;-71
2021/10/24 01:43:20;;;;;;;44.55;28.23;;;;;;;3.41;100.00;102559.97;5044088;28;20362;-71
2021/10/24 01:45:46;;;;;;;45.08;28.88;;;;;;;3.46;100.00;102550.69;5047584;28;20380;-70
2021/10/24 01:48:13;;;;;;;47.00;30.10;;;;;;;3.43;100.00;102556.63;5044529;28;20022;-71
2021/10/24 01:50:38;;;;;;;45.03;29.33;;;;;;;3.42;100.00;102546.06;5046958;28;20025;-71
2021/10/24 01:53:04;;;;;;;44.80;29.17;;;;;;;3.37;100.00;102543.19;5045254;28;20037;-70
2021/10/24 01:55:31;;;;;;;47.22;30.52;;;;;;;3.35;100.00;102542.19;5045031;28;20104;-71
2021/10/24 01:57:56;;;;;;;47.38;31.27;;;;;;;3.30;100.00;102535.78;5046625;28;20029;-72
2021/10/24 02:00:22;;;;;;;47.95;31.35;;;;;;;3.30;100.00;102535.78;5044272;28;20033;-72
2021/10/24 02:02:48;;;;;;;48.15;31.85;;;;;;;3.29;100.00;102533.94;5047306;28;20021;-69
2021/10/24 02:05:14;;;;;;;47.17;30.10;;;;;;;3.21;100.00;102532.59;5044095;28;20033;-69
2021/10/24 02:07:39;;;;;;;43.90;28.02;;;;;;;3.16;100.00;102529.72;5046160;28;20491;-71
2021/10/24 02:10:08;;;;;;;47.38;30.05;;;;;;;3.18;100.00;102527.19;5045095;28;20532;-71
2021/10/24 02:12:34;;;;;;;46.83;31.10;;;;;;;3.16;100.00;102536.63;5045490;28;20036;-72
2021/10/24 02:15:00;;;;;;;43.55;28.58;;;;;;;3.09;100.00;102527.53;5045430;28;20108;-71
2021/10/24 02:17:25;;;;;;;43.60;28.77;;;;;;;3.04;100.00;102527.22;5044162;28;20152;-70
2021/10/24 02:19:51;;;;;;;45.85;29.38;;;;;;;3.06;100.00;102517.78;5044470;28;20464;-69
2021/10/24 02:22:16;;;;;;;48.08;32.22;;;;;;;3.02;100.00;102522.72;5046690;28;20047;-72
2021/10/24 02:24:42;;;;;;;44.25;29.13;;;;;;;2.94;100.00;102519.63;5043331;28;20056;-62
2021/10/24 02:27:08;;;;;;;44.72;29.27;;;;;;;2.99;100.00;102514.72;5046713;28;20056;-62
2021/10/24 02:29:33;;;;;;;46.58;30.65;;;;;;;2.99;100.00;102510.38;5043984;28;20036;-62
2021/10/24 02:31:58;;;;;;;46.90;29.70;;;;;;;2.94;100.00;102509.16;5045426;28;20032;-62
2021/10/24 02:34:24;;;;;;;45.45;30.27;;;;;;;2.88;100.00;102506.19;5045167;28;20037;-62
2021/10/24 02:36:49;;;;;;;43.85;29.45;;;;;;;2.80;100.00;102497.88;5044015;28;20032;-62
2021/10/24 02:39:14;;;;;;;42.63;28.95;;;;;;;2.78;100.00;102500.41;5078554;28;20041;-64
2021/10/24 02:41:40;;;;;;;45.28;29.67;;;;;;;2.79;100.00;102494.34;5045367;28;20369;-62
2021/10/24 02:44:05;;;;;;;43.92;28.73;;;;;;;2.72;100.00;102492.19;5042703;28;20045;-61
2021/10/24 02:46:30;;;;;;;47.22;31.80;;;;;;;2.71;100.00;102487.75;5046310;28;20049;-62
2021/10/24 02:48:56;;;;;;;46.95;30.95;;;;;;;2.74;100.00;102493.16;5043491;28;20028;-62
2021/10/24 02:51:21;;;;;;;45.75;31.20;;;;;;;2.74;100.00;102495.78;5045197;28;20022;-63
2021/10/24 02:53:47;;;;;;;48.85;31.63;;;;;;;2.77;100.00;102490.75;5044632;28;20025;-61
2021/10/24 02:56:12;;;;;;;45.13;31.20;;;;;;;2.74;100.00;102487.06;5043278;28;20112;-62
2021/10/24 02:58:37;;;;;;;50.70;33.35;;;;;;;2.79;100.00;102483.91;5045939;28;20025;-62
2021/10/24 03:01:02;;;;;;;50.08;33.58;;;;;;;2.85;100.00;102485.09;5042571;28;20083;-62
2021/10/24 03:03:28;;;;;;;45.78;31.15;;;;;;;2.82;100.00;102485.81;5045447;28;20029;-71
2021/10/24 03:05:53;;;;;;;46.10;31.25;;;;;;;2.81;100.00;102489.25;5043601;28;20037;-71
2021/10/24 03:08:18;;;;;;;48.08;32.13;;;;;;;2.81;100.00;102475.25;5044091;28;20112;-70
2021/10/24 03:10:44;;;;;;;48.08;32.58;;;;;;;2.79;100.00;102486.50;5044725;28;20396;-71
2021/10/24 03:13:09;;;;;;;47.88;31.15;;;;;;;2.78;100.00;102484.72;5042797;28;20025;-70
2021/10/24 03:15:34;;;;;;;49.25;32.42;;;;;;;2.77;100.00;102471.56;5045673;28;20025;-72
2021/10/24 03:18:00;;;;;;;53.00;34.53;;;;;;;2.74;100.00;102469.66;5042362;28;20416;-71
2021/10/24 03:20:25;;;;;;;50.03;33.28;;;;;;;2.71;100.00;102463.34;5045017;28;20026;-71
2021/10/24 03:22:50;;;;;;;48.97;33.45;;;;;;;2.71;100.00;102472.09;5043869;28;20073;-71
2021/10/24 03:25:16;;;;;;;50.58;33.17;;;;;;;2.71;100.00;102474.69;5043487;28;20030;-71
2021/10/24 03:27:41;;;;;;;48.15;32.25;;;;;;;2.65;100.00;102466.50;5044385;28;20025;-71
2021/10/24 03:30:07;;;;;;;47.90;32.78;;;;;;;2.59;100.00;102468.69;5041371;28;20064;-72
2021/10/24 03:32:33;;;;;;;48.72;32.60;;;;;;;2.55;100.00;102466.69;5045653;28;20025;-70
2021/10/24 03:34:58;;;;;;;49.92;33.75;;;;;;;2.53;100.00;102470.94;5042582;28;20128;-72
2021/10/24 03:37:24;;;;;;;52.13;34.65;;;;;;;2.48;100.00;102467.13;5044126;28;20422;-71
2021/10/24 03:39:50;;;;;;;50.80;34.42;;;;;;;2.41;100.00;102468.44;5043119;28;20464;-69
2021/10/24 03:42:16;;;;;;;49.42;33.80;;;;;;;2.36;100.00;102462.00;5041548;28;20481;-71
2021/10/24 03:44:41;;;;;;;51.38;35.08;;;;;;;2.37;100.00;102459.50;5043743;28;20089;-70
2021/10/24 03:47:06;;;;;;;51.13;34.22;;;;;;;2.29;100.00;102471.19;5043654;28;20040;-72
2021/10/24 03:49:32;;;;;;;52.40;34.42;;;;;;;2.28;100.00;102469.38;5042686;28;20388;-71
2021/10/24 03:51:57;;;;;;;49.30;33.38;;;;;;;2.27;100.00;102464.94;5044736;28;20021;-70
2021/10/24 03:54:22;;;;;;;49.50;34.28;;;;;;;2.29;100.00;102468.56;5040688;28;20033;-70
2021/10/24 03:56:48;;;;;;;48.83;33.70;;;;;;;2.24;100.00;102470.91;5044717;28;20025;-70
2021/10/24 03:59:13;;;;;;;55.42;35.53;;;;;;;2.21;100.00;102462.88;5042481;28;20029;-70
2021/10/24 04:01:38;;;;;;;49.75;33.13;;;;;;;2.16;100.00;102471.19;5043529;28;20024;-62
2021/10/24 04:04:04;;;;;;;49.60;32.88;;;;;;;2.16;100.00;102464.25;5043538;28;20029;-61
2021/10/24 04:06:29;;;;;;;48.72;33.40;;;;;;;2.07;100.00;102468.91;5042165;28;20552;-62
2021/10/24 04:08:54;;;;;;;49.15;33.28;;;;;;;2.06;100.00;102467.97;5044686;28;20066;-62
2021/10/24 04:11:20;;;;;;;52.03;34.53;;;;;;;2.04;100.00;102474.81;5037661;28;20071;-62
2021/10/24 04:13:46;;;;;;;54.67;35.85;;;;;;;2.01;100.00;102465.88;5044230;28;20028;-61
2021/10/24 04:16:12;;;;;;;56.10;36.40;;;;;;;2.03;100.00;102466.91;5042272;28;20064;-61
2021/10/24 04:18:37;;;;;;;52.30;35.60;;;;;;;2.00;100.00;102464.09;5043214;28;20022;-62
2021/10/24 04:21:03;;;;;;;58.42;36.03;;;;;;;2.00;100.00;102464.97;5043891;28;20025;-62
2021/10/24 04:23:28;;;;;;;57.33;37.58;;;;;;;1.97;100.00;102462.19;5041553;28;20021;-62
2021/10/24 04:25:53;;;;;;;60.28;39.58;;;;;;;2.05;100.00;102470.50;5042624;28;20041;-64
2021/10/24 04:28:20;;;;;;;59.17;40.45;;;;;;;2.00;100.00;102457.16;5041560;28;20025;-62
2021/10/24 04:30:45;;;;;;;59.75;39.45;;;;;;;1.97;100.00;102454.34;5043803;28;20083;-62
2021/10/24 04:33:12;;;;;;;61.10;41.58;;;;;;;1.94;100.00;102461.06;5042450;28;20052;-62
2021/10/24 04:35:37;;;;;;;64.32;42.85;;;;;;;1.94;100.00;102456.75;5043018;28;20029;-62
2021/10/24 04:38:02;;;;;;;61.58;41.10;;;;;;;1.93;100.00;102452.34;5043337;28;20396;-62
2021/10/24 04:40:28;;;;;;;58.70;40.03;;;;;;;1.84;100.00;102450.03;5041902;28;20043;-62
2021/10/24 04:42:53;;;;;;;63.13;41.10;;;;;;;1.87;100.00;102449.34;5041961;28;20025;-61
2021/10/24 04:45:19;;;;;;;63.17;42.28;;;;;;;1.82;100.00;102446.44;5040440;28;20583;-61
2021/10/24 04:47:44;;;;;;;67.25;43.75;;;;;;;1.85;100.00;102444.03;5044431;28;20033;-62
2021/10/24 04:50:09;;;;;;;66.13;43.03;;;;;;;1.80;100.00;102447.13;5041280;28;20096;-63
2021/10/24 04:52:37;;;;;;;65.82;41.75;;;;;;;1.77;100.00;102446.94;5043005;28;20033;-62
2021/10/24 04:55:03;;;;;;;63.97;41.00;;;;;;;1.79;100.00;102442.72;5042733;28;20032;-62
2021/10/24 04:57:30;;;;;;;64.32;40.13;;;;;;;1.74;100.00;102445.00;5042320;28;20029;-62
2021/10/24 04:59:55;;;;;;;71.70;42.20;;;;;;;1.76;100.00;102442.50;5043087;28;20075;-62
2021/10/24 05:02:21;;;;;;;71.57;39.65;;;;;;;1.72;100.00;102441.41;5041114;28;20025;-62
2021/10/24 05:04:46;;;;;;;77.22;44.38;;;;;;;1.75;100.00;102441.63;5042980;28;20033;-62
2021/10/24 05:07:12;;;;;;;73.28;43.10;;;;;;;1.77;100.00;102436.50;5040883;28;20021;-62
2021/10/24 05:09:37;;;;;;;68.28;41.42;;;;;;;1.67;100.00;102435.88;5043576;28;20083;-64
2021/10/24 05:12:02;;;;;;;65.47;40.08;;;;;;;1.69;100.00;102433.38;5040466;28;20029;-62
2021/10/24 05:14:28;;;;;;;61.85;39.75;;;;;;;1.64;100.00;102429.56;5040565;28;20417;-62
2021/10/24 05:16:53;;;;;;;55.28;37.03;;;;;;;1.65;100.00;102420.97;5040116;28;20029;-63
2021/10/24 05:19:19;;;;;;;55.35;37.10;;;;;;;1.60;100.00;102422.34;5039236;28;20361;-62
2021/10/24 05:21:44;;;;;;;57.63;39.03;;;;;;;1.60;100.00;102423.22;5037186;28;20048;-61
2021/10/24 05:24:10;;;;;;;53.85;36.30;;;;;;;1.63;100.00;102412.09;5041756;28;20143;-63
2021/10/24 05:26:35;;;;;;;56.75;35.95;;;;;;;1.53;100.00;102406.31;5036647;28;20029;-62
2021/10/24 05:29:01;;;;;;;53.63;36.08;;;;;;;1.55;100.00;102409.00;5040486;28;20072;-63
2021/10/24 05:31:26;;;;;;;54.10;35.38;;;;;;;1.52;100.00;102401.88;5038563;28;20500;-63
2021/10/24 05:33:53;;;;;;;53.50;35.10;;;;;;;1.52;100.00;102409.69;5041286;28;20017;-64
2021/10/24 05:36:18;;;;;;;55.22;38.20;;;;;;;1.50;100.00;102405.19;5041082;28;20035;-63
2021/10/24 05:38:43;;;;;;;56.03;36.63;;;;;;;1.43;100.00;102401.28;5043619;28;20108;-61
2021/10/24 05:41:09;;;;;;;54.92;37.35;;;;;;;1.42;100.00;102398.59;5041006;28;20024;-62
2021/10/24 05:43:34;;;;;;;53.72;37.33;;;;;;;1.37;100.00;102401.78;5039700;28;20032;-63
2021/10/24 05:45:59;;;;;;;59.35;38.88;;;;;;;1.43;100.00;102398.69;5040112;28;20025;-62
2021/10/24 05:48:25;;;;;;;58.80;38.85;;;;;;;1.35;100.00;102398.16;5039873;28;20735;-62
2021/10/24 05:50:50;;;;;;;55.90;37.47;;;;;;;1.29;100.00;102389.94;5040648;28;20036;-64
2021/10/24 05:53:15;;;;;;;61.50;38.10;;;;;;;1.33;100.00;102397.16;5038266;28;20460;-64
2021/10/24 05:55:41;;;;;;;59.13;38.80;;;;;;;1.33;100.00;102399.75;5042514;28;20049;-63
2021/10/24 05:58:07;;;;;;;63.17;39.80;;;;;;;1.36;100.00;102397.34;5036337;28;20021;-62
2021/10/24 06:00:32;;;;;;;63.72;40.53;;;;;;;1.34;100.00;102388.53;5073798;28;20045;-62
2021/10/24 06:03:07;;;;;;;65.07;41.05;;;;;;;1.34;100.00;102387.63;5037905;28;20456;-62
2021/10/24 06:05:33;;;;;;;63.85;41.30;;;;;;;1.35;100.00;102384.22;5040732;28;20029;-61
2021/10/24 06:08:02;;;;;;;69.70;42.33;;;;;;;1.35;100.00;102385.13;5035666;28;20033;-60
2021/10/24 06:10:37;;;;;;;66.28;41.00;;;;;;;1.35;100.00;102381.63;5042418;28;20100;-61
2021/10/24 06:13:03;;;;;;;63.83;41.55;;;;;;;1.34;100.00;102383.34;5040168;28;20034;-61
2021/10/24 06:15:29;;;;;;;64.70;40.88;;;;;;;1.33;100.00;102391.94;5041575;28;20503;-62
2021/10/24 06:17:56;;;;;;;79.03;44.10;;;;;;;1.44;100.00;102386.53;5037404;28;20029;-62
2021/10/24 06:20:25;;;;;;;75.55;42.80;;;;;;;1.44;100.00;102378.72;5035771;28;20076;-62
2021/10/24 06:22:50;;;;;;;75.55;43.08;;;;;;;1.54;100.00;102381.13;5040957;28;20033;-63
2021/10/24 06:25:17;;;;;;;82.88;44.50;;;;;;;1.54;100.00;102386.34;5040752;28;20037;-63
2021/10/24 06:27:44;;;;;;;72.47;41.60;;;;;;;1.52;100.00;102382.75;5041891;28;20028;-62
2021/10/24 06:30:12;;;;;;;73.03;42.67;;;;;;;1.52;100.00;102377.53;5039156;28;20026;-63
2021/10/24 06:32:38;;;;;;;72.43;41.58;;;;;;;1.58;100.00;102372.72;5042122;28;20028;-61
2021/10/24 06:35:04;;;;;;;79.47;44.30;;;;;;;1.69;100.00;102376.94;5041994;28;20029;-61
2021/10/24 06:37:38;;;;;;;80.25;44.17;;;;;;;1.75;100.00;102379.03;5041297;28;20043;-63
2021/10/24 06:40:04;;;;;;;88.28;44.17;;;;;;;1.77;100.00;102384.34;5033364;28;20108;-63
2021/10/24 06:42:29;;;;;;;78.50;42.05;;;;;;;1.73;100.00;102375.41;5039351;28;20021;-63
2021/10/24 06:44:55;;;;;;;78.97;42.72;;;;;;;1.73;100.00;102378.00;5043109;28;20116;-62
2021/10/24 06:47:20;;;;;;;83.03;43.97;;;;;;;1.85;100.00;102368.38;5043856;28;20033;-62
2021/10/24 06:49:45;;;;;;;82.72;45.00;;;;;;;1.94;100.00;102373.28;5044544;28;20108;-63
2021/10/24 06:52:11;;;;;;;83.68;46.60;;;;;;;1.97;100.00;102375.19;5043700;28;20067;-61
2021/10/24 06:54:36;;;;;;;87.85;47.15;;;;;;;2.01;100.00;102372.88;5042663;28;20453;-62
2021/10/24 06:57:02;;;;;;;85.72;44.22;;;;;;;2.07;100.00;102364.53;5047666;28;20436;-63
2021/10/24 06:59:27;;;;;;;85.22;44.63;;;;;;;2.09;100.00;102363.81;5042023;28;20029;-63
2021/10/24 07:01:52;;;;;;;79.30;42.25;;;;;;;2.14;100.00;102371.97;5039492;28;20476;-63
2021/10/24 07:04:18;;;;;;;79.90;43.80;;;;;;;2.16;100.00;102366.84;5042620;28;20041;-62
2021/10/24 07:06:43;;;;;;;89.15;44.13;;;;;;;2.22;100.00;102365.50;5038525;28;20057;-62
2021/10/24 07:09:08;;;;;;;81.90;43.25;;;;;;;2.32;100.00;102359.16;5042667;28;20029;-62
2021/10/24 07:11:34;;;;;;;85.32;43.75;;;;;;;2.39;100.00;102356.09;5044213;28;20025;-62
2021/10/24 07:13:59;;;;;;;84.50;42.65;;;;;;;2.48;100.00;102352.28;5040703;28;20029;-62
2021/10/24 07:16:25;;;;;;;84.22;43.08;;;;;;;2.57;100.00;102363.25;5037674;28;20490;-63
2021/10/24 07:18:51;;;;;;;83.72;42.95;;;;;;;2.66;100.00;102357.69;5022552;28;20047;-62
2021/10/24 07:21:17;;;;;;;82.07;42.42;;;;;;;2.74;100.00;102346.91;5039652;28;20102;-63
2021/10/24 07:23:42;;;;;;;76.40;41.78;;;;;;;2.82;100.00;102352.59;5040053;28;20052;-63
2021/10/24 07:26:08;;;;;;;71.22;40.63;;;;;;;2.90;100.00;102348.72;5042468;28;20029;-62
2021/10/24 07:28:33;;;;;;;71.47;39.58;;;;;;;2.98;100.00;102341.34;5039781;28;20033;-62
2021/10/24 07:30:58;;;;;;;63.22;36.05;;;;;;;3.07;100.00;102341.91;5037959;28;20079;-62
2021/10/24 07:33:24;;;;;;;64.70;36.20;;;;;;;3.10;100.00;102339.47;5039892;28;20143;-62
2021/10/24 07:35:49;;;;;;;62.47;35.50;;;;;;;3.16;100.00;102338.00;5037467;28;20476;-62
2021/10/24 07:38:15;;;;;;;61.88;35.03;;;;;;;3.17;100.00;102343.31;5038172;28;20029;-61
2021/10/24 07:40:49;;;;;;;56.58;33.05;;;;;;;3.24;100.00;102340.25;5042160;28;20372;-63
2021/10/24 07:43:18;;;;;;;59.13;33.83;;;;;;;3.29;100.00;102328.38;5037873;28;20067;-64
2021/10/24 07:45:48;;;;;;;58.20;32.40;;;;;;;3.35;100.00;102326.91;5038426;28;20048;-62
2021/10/24 07:48:14;;;;;;;59.15;33.05;;;;;;;3.39;100.00;102334.13;5034739;28;20491;-63
2021/10/24 07:50:39;;;;;;;54.03;31.15;;;;;;;3.46;100.00;102331.03;5041139;28;20071;-63
2021/10/24 07:53:05;;;;;;;58.80;31.63;;;;;;;3.57;100.00;102326.41;5041764;28;20040;-64
2021/10/24 07:55:32;;;;;;;52.58;31.33;;;;;;;3.63;100.00;102326.78;5044731;28;20384;-64
2021/10/24 07:57:57;;;;;;;56.25;31.27;;;;;;;3.71;100.00;102322.84;5041434;28;20021;-63
2021/10/24 08:00:23;;;;;;;54.13;31.55;;;;;;;3.79;100.00;102328.53;5043411;28;20018;-62
2021/10/24 08:02:50;;;;;;;54.63;30.17;;;;;;;3.83;100.00;102327.91;5042714;28;20048;-62
2021/10/24 08:05:15;;;;;;;53.55;30.75;;;;;;;3.94;100.00;102323.25;5042591;28;20483;-67
2021/10/24 08:07:43;;;;;;;57.30;31.63;;;;;;;4.03;100.00;102320.22;5043810;28;20020;-67
2021/10/24 08:10:10;;;;;;;51.17;30.92;;;;;;;4.08;100.00;102319.66;5041902;28;20022;-69
2021/10/24 08:12:38;;;;;;;54.08;30.23;;;;;;;4.18;100.00;102321.97;5044474;28;20032;-66
2021/10/24 08:15:05;;;;;;;49.33;28.73;;;;;;;4.26;100.00;102319.75;5040903;28;20022;-68
2021/10/24 08:17:30;;;;;;;47.80;28.80;;;;;;;4.40;100.00;102323.13;5044975;28;20031;-68
2021/10/24 08:19:55;;;;;;;47.28;27.52;;;;;;;4.50;100.00;102314.94;5041933;28;20021;-69
2021/10/24 08:22:23;;;;;;;49.00;26.92;;;;;;;4.57;100.00;102310.88;5041687;28;20116;-68
2021/10/24 08:24:48;;;;;;;49.42;27.02;;;;;;;4.65;100.00;102309.56;5043446;28;20032;-69
2021/10/24 08:27:13;;;;;;;45.50;25.13;;;;;;;4.75;100.00;102305.72;5042742;28;20029;-69
2021/10/24 08:29:40;;;;;;;44.10;25.17;;;;;;;4.79;100.00;102302.44;5042247;28;20028;-68
2021/10/24 08:32:09;;;;;;;45.20;25.15;;;;;;;4.92;100.00;102303.94;5043835;28;20043;-67
2021/10/24 08:34:36;;;;;;;44.47;25.05;;;;;;;5.03;100.00;102294.91;5035369;28;20034;-63
2021/10/24 08:37:02;;;;;;;42.75;23.95;;;;;;;5.07;100.00;102294.25;5039869;28;20079;-64
2021/10/24 08:39:27;;;;;;;44.13;23.58;;;;;;;5.18;100.00;102292.13;5033393;28;20102;-63
2021/10/24 08:41:54;;;;;;;42.42;23.67;;;;;;;5.27;100.00;102277.69;5029707;28;20140;-64
2021/10/24 08:44:20;;;;;;;41.35;23.05;;;;;;;5.50;100.00;102287.56;5030481;28;20041;-62
2021/10/24 08:46:46;;;;;;;44.13;22.63;;;;;;;5.75;100.00;102280.88;5035713;28;20075;-62
2021/10/24 08:49:12;;;;;;;37.47;21.23;;;;;;;5.85;100.00;102277.84;5032394;28;20037;-62
2021/10/24 08:51:37;;;;;;;38.80;20.98;;;;;;;5.94;100.00;102277.38;5031790;28;20392;-63
2021/10/24 08:54:04;;;;;;;38.95;21.02;;;;;;;6.09;100.00;102274.59;5035268;28;20049;-63
2021/10/24 08:56:30;;;;;;;39.47;20.90;;;;;;;6.20;100.00;102280.34;5032570;28;20156;-63
2021/10/24 08:58:59;;;;;;;36.97;19.60;;;;;;;6.40;100.00;102278.59;5034209;28;20025;-64
2021/10/24 09:01:24;;;;;;;36.97;18.13;;;;;;;6.45;100.00;102263.91;5031408;28;20021;-64
2021/10/24 09:04:12;;;;;;;34.60;18.23;;;;;;;6.47;100.00;102269.28;5037104;28;20021;-64
2021/10/24 09:07:03;;;;;;;33.58;18.33;;;;;;;6.53;100.00;102270.41;5036972;28;20029;-63
2021/10/24 09:09:30;;;;;;;33.30;18.30;;;;;;;6.56;100.00;102272.28;5035610;28;20025;-62
2021/10/24 09:11:57;;;;;;;35.15;18.45;;;;;;;6.69;100.00;102266.72;5038359;28;20033;-62
2021/10/24 09:14:48;;;;;;;32.35;17.73;;;;;;;6.74;100.00;102267.84;5037884;28;20033;-62
2021/10/24 09:17:16;;;;;;;34.67;18.13;;;;;;;7.00;100.00;102261.88;5034464;28;20032;-62
2021/10/24 09:19:45;;;;;;;31.20;17.30;;;;;;;7.22;97.85;102251.38;5035310;28;20104;-62
2021/10/24 09:22:35;;;;;;;33.13;17.55;;;;;;;7.40;96.36;102263.50;5038447;28;20030;-62
2021/10/24 09:25:01;;;;;;;32.80;17.30;;;;;;;7.44;96.42;102254.88;5032965;28;20081;-62
2021/10/24 09:27:30;;;;;;;35.47;17.65;;;;;;;7.45;95.96;102246.16;5041283;28;20105;-62
2021/10/24 09:30:05;;;;;;;32.58;16.50;;;;;;;7.58;92.97;102255.44;5038937;28;20024;-69
2021/10/24 09:32:47;;;;;;;32.35;16.95;;;;;;;7.62;94.37;102255.59;5037992;28;20061;-69
2021/10/24 09:35:12;;;;;;;34.10;16.65;;;;;;;7.66;92.05;102256.66;5039447;28;20048;-69
2021/10/24 09:37:48;;;;;;;33.03;16.85;;;;;;;7.97;91.16;102256.06;5042198;28;20025;-70
2021/10/24 09:40:16;;;;;;;32.67;16.45;;;;;;;8.43;88.00;102258.56;5046171;28;20028;-69
2021/10/24 09:42:42;;;;;;;31.25;15.68;;;;;;;8.69;84.04;102254.25;5043401;28;20021;-69
2021/10/24 09:45:11;;;;;;;30.35;15.65;;;;;;;8.67;85.83;102254.19;5046705;28;20045;-69
2021/10/24 09:47:42;;;;;;;30.55;15.93;;;;;;;8.75;84.80;102248.31;5043757;28;20025;-69
2021/10/24 09:50:26;;;;;;;30.35;15.15;;;;;;;8.96;80.39;102256.94;5040716;28;20021;-70
2021/10/24 09:52:52;;;;;;;30.38;14.57;;;;;;;9.44;77.30;102242.66;5045625;28;20104;-69
2021/10/24 09:55:17;;;;;;;28.13;14.48;;;;;;;9.53;76.23;102237.66;5045284;28;20071;-71
2021/10/24 09:57:44;;;;;;;28.02;13.85;;;;;;;9.93;77.48;102241.50;5046470;28;20051;-71
2021/10/24 10:00:11;;;;;;;28.42;13.75;;;;;;;10.60;73.55;102236.31;5044222;28;20103;-71
2021/10/24 10:02:38;;;;;;;28.20;13.88;;;;;;;11.28;71.01;102239.75;5046946;28;20021;-71
2021/10/24 10:05:03;;;;;;;28.33;13.25;;;;;;;12.50;66.24;102242.34;5039809;28;20052;-71
2021/10/24 10:07:29;;;;;;;26.85;13.00;;;;;;;13.36;62.76;102232.31;5046999;28;20452;-71
2021/10/24 10:09:55;;;;;;;26.67;12.00;;;;;;;13.91;60.76;102238.38;5044565;28;20067;-70
2021/10/24 10:12:24;;;;;;;27.40;12.13;;;;;;;14.91;56.74;102235.91;5045582;28;20052;-71
2021/10/24 10:14:55;;;;;;;26.23;12.20;;;;;;;15.10;56.19;102228.06;5045349;28;20024;-71
2021/10/24 10:17:24;;;;;;;25.63;11.15;;;;;;;15.81;53.76;102229.44;5045116;28;20385;-71
2021/10/24 10:19:51;;;;;;;23.77;11.32;;;;;;;16.20;51.29;102222.44;5044981;28;20032;-71
2021/10/24 10:22:22;;;;;;;25.13;10.98;;;;;;;16.74;50.58;102218.97;5044856;28;20396;-63
2021/10/24 10:25:00;;;;;;;23.42;10.10;;;;;;;17.01;46.83;102228.78;5045499;28;20036;-63
2021/10/24 10:27:29;;;;;;;24.88;10.15;;;;;;;16.85;49.08;102229.66;5045802;28;20018;-64
2021/10/24 10:29:58;;;;;;;24.77;10.18;;;;;;;17.00;48.79;102229.69;5044359;28;20032;-64
2021/10/24 10:32:34;;;;;;;24.10;10.18;;;;;;;18.06;48.90;102212.47;5045610;28;20144;-64
2021/10/24 10:35:03;;;;;;;23.90;9.82;;;;;;;18.22;44.04;102228.47;5043592;28;20023;-64
2021/10/24 10:37:50;;;;;;;25.10;9.60;;;;;;;18.59;48.11;102221.06;5045537;28;20487;-64
2021/10/24 10:40:29;;;;;;;24.65;9.90;;;;;;;18.88;42.42;102229.81;5043962;28;20464;-64
2021/10/24 10:43:18;;;;;;;22.35;9.23;;;;;;;19.25;41.80;102226.78;5046331;28;20033;-64
2021/10/24 10:45:53;;;;;;;23.63;9.38;;;;;;;19.84;43.24;102221.69;5042604;28;20045;-65
2021/10/24 10:48:37;;;;;;;23.75;9.10;;;;;;;19.99;43.42;102223.28;5044074;28;20021;-64
2021/10/24 10:51:24;;;;;;;23.55;10.25;;;;;;;19.87;42.76;102216.28;5039939;28;20022;-64
2021/10/24 10:53:52;;;;;;;24.02;10.10;;;;;;;19.44;41.82;102222.13;5043585;28;20036;-64
2021/10/24 10:56:20;;;;;;;24.08;9.70;;;;;;;19.47;39.86;102223.00;5044197;28;20021;-66
2021/10/24 10:58:53;;;;;;;24.27;10.10;;;;;;;19.59;41.52;102221.09;5044218;28;20488;-64
2021/10/24 11:01:23;;;;;;;25.38;9.88;;;;;;;20.33;39.92;102217.47;5044877;28;20026;-64
2021/10/24 11:04:19;;;;;;;23.67;9.40;;;;;;;20.76;41.37;102211.44;5043726;28;20037;-65
2021/10/24 11:06:48;;;;;;;23.27;9.18;;;;;;;21.37;37.05;102205.88;5026314;28;20048;-65
2021/10/24 11:09:52;;;;;;;23.08;9.82;;;;;;;21.77;37.83;102199.72;5030761;28;20485;-65